createdAt,value
2018-09-04T00:01:44.459Z,100242.73
2018-09-04T00:06:48.149Z,100243.53
2018-09-04T00:11:51.795Z,100236.23
2018-09-04T00:16:55.477Z,100237.84
2018-09-04T00:21:59.215Z,100232.25
2018-09-04T00:27:02.957Z,100223.45
2018-09-04T00:32:07.004Z,100227.91
2018-09-04T00:37:10.831Z,100222.81
2018-09-04T00:42:14.489Z,100222.39
2018-09-04T00:47:18.143Z,100219.20
2018-09-04T00:52:21.846Z,100216.42
2018-09-04T00:57:25.522Z,100221.45
2018-09-04T01:02:29.161Z,100215.16
2018-09-04T01:07:32.849Z,100223.59
2018-09-04T01:12:36.642Z,100222.97
2018-09-04T01:17:40.280Z,100221.56
2018-09-04T01:22:43.953Z,100221.85
2018-09-04T01:27:47.717Z,100225.66
2018-09-04T01:32:51.606Z,100215.66
2018-09-04T01:37:55.253Z,100213.26
2018-09-04T01:42:59.008Z,100215.21
2018-09-04T01:48:06.389Z,100214.30
2018-09-04T01:53:10.042Z,100218.13
2018-09-04T01:58:13.683Z,100220.94
2018-09-04T02:03:17.416Z,100222.08
2018-09-04T02:08:21.090Z,100216.13
2018-09-04T02:13:24.698Z,100218.72
2018-09-04T02:18:28.299Z,100224.39
2018-09-04T02:23:31.989Z,100223.33
2018-09-04T02:28:35.591Z,100225.67
2018-09-04T02:33:39.318Z,100229.72
2018-09-04T02:38:42.899Z,100229.12
2018-09-04T02:43:46.584Z,100236.84
2018-09-04T02:48:50.267Z,100236.48
2018-09-04T02:53:54.049Z,100235.92
2018-09-04T02:58:57.940Z,100243.01
2018-09-04T03:04:01.605Z,100244.61
2018-09-04T03:09:06.837Z,100249.28
2018-09-04T03:14:10.522Z,100248.22
2018-09-04T03:19:14.157Z,100250.06
2018-09-04T03:24:17.818Z,100251.55
2018-09-04T03:29:21.486Z,100257.18
2018-09-04T03:34:25.231Z,100258.67
2018-09-04T03:39:29.972Z,100262.84
2018-09-04T03:44:33.650Z,100258.88
2018-09-04T03:49:37.774Z,100263.19
2018-09-04T03:54:41.426Z,100269.49
2018-09-04T03:59:45.101Z,100267.39
2018-09-04T04:04:48.726Z,100270.41
2018-09-04T04:09:52.406Z,100273.20
2018-09-04T04:14:56.116Z,100275.30
2018-09-04T04:19:59.766Z,100271.14
2018-09-04T04:25:06.894Z,100273.78
2018-09-04T04:30:10.665Z,100281.13
2018-09-04T04:35:14.454Z,100273.82
2018-09-04T04:40:18.162Z,100277.37
2018-09-04T04:45:21.833Z,100274.50
2018-09-04T04:50:25.567Z,100282.20
2018-09-04T04:55:29.483Z,100277.41
2018-09-04T05:00:33.695Z,100283.50
2018-09-04T05:05:37.398Z,100290.54
2018-09-04T05:10:41.097Z,100301.00
2018-09-04T05:15:44.854Z,100300.64
2018-09-04T05:20:48.534Z,100299.66
2018-09-04T05:25:52.213Z,100300.12
2018-09-04T05:30:56.014Z,100307.56
2018-09-04T05:36:00.147Z,100309.35
2018-09-04T05:41:03.886Z,100321.36
2018-09-04T05:46:10.483Z,100327.90
2018-09-04T05:51:14.176Z,100319.48
2018-09-04T05:56:17.799Z,100322.91
2018-09-04T06:01:21.529Z,100325.91
2018-09-04T06:06:25.211Z,100331.81
2018-09-04T06:11:28.983Z,100333.89
2018-09-04T06:16:32.713Z,100333.75
2018-09-04T06:21:36.344Z,100334.87
2018-09-04T06:26:40.002Z,100335.11
2018-09-04T06:31:43.677Z,100329.82
2018-09-04T06:36:47.468Z,100333.51
2018-09-04T06:41:51.119Z,100331.55
2018-09-04T06:46:54.777Z,100332.40
2018-09-04T06:51:58.482Z,100336.23
2018-09-04T06:57:02.233Z,100344.66
2018-09-04T07:02:05.968Z,100342.48
2018-09-04T07:07:09.687Z,100344.34
2018-09-04T07:12:13.440Z,100354.83
2018-09-04T07:17:17.063Z,100357.44
2018-09-04T07:22:20.698Z,100352.19
2018-09-04T07:27:24.422Z,100366.91
2018-09-04T07:32:28.083Z,100366.58
2018-09-04T07:37:31.796Z,100364.96
2018-09-04T07:42:35.431Z,100360.14
2018-09-04T07:47:39.131Z,100352.42
2018-09-04T07:52:42.768Z,100353.39
2018-09-04T07:57:46.458Z,100356.42
2018-09-04T08:02:50.163Z,100352.46
2018-09-04T08:07:53.869Z,100349.50
2018-09-04T08:12:57.608Z,100352.82
2018-09-04T08:18:01.800Z,100344.75
2018-09-04T08:23:05.494Z,100344.41
2018-09-04T08:28:09.140Z,100338.95
2018-09-04T08:33:12.928Z,100334.28
2018-09-04T08:38:16.582Z,100330.84
2018-09-04T08:43:20.318Z,100332.19
2018-09-04T08:48:23.941Z,100323.22
2018-09-04T08:53:27.608Z,100317.95
2018-09-04T08:58:31.239Z,100319.27
2018-09-04T09:03:34.874Z,100315.59
2018-09-04T09:08:38.603Z,100312.47
2018-09-04T09:13:42.248Z,100313.43
2018-09-04T09:18:46.003Z,100311.98
2018-09-04T09:23:49.758Z,100302.52
2018-09-04T09:28:53.429Z,100316.77
2018-09-04T09:33:57.100Z,100315.55
2018-09-04T09:39:01.146Z,100312.66
2018-09-04T09:44:04.858Z,100306.52
2018-09-04T09:49:09.532Z,100301.13
2018-09-04T09:54:13.241Z,100299.00
2018-09-04T09:59:16.960Z,100305.55
2018-09-04T10:04:21.441Z,100288.66
2018-09-04T10:09:25.144Z,100287.66
2018-09-04T10:14:29.261Z,100289.29
2018-09-04T10:19:33.062Z,100285.00
2018-09-04T10:24:36.779Z,100283.58
2018-09-04T10:29:40.472Z,100281.23
2018-09-04T10:34:44.149Z,100294.84
2018-09-04T10:39:53.222Z,100292.37
2018-09-04T10:44:57.004Z,100291.02
2018-09-04T10:50:05.374Z,100281.34
2018-09-04T10:55:09.086Z,100277.13
2018-09-04T11:00:12.784Z,100279.98
2018-09-04T11:05:16.478Z,100269.62
2018-09-04T11:10:20.317Z,100264.69
2018-09-04T11:15:23.994Z,100261.64
2018-09-04T11:20:27.759Z,100257.35
2018-09-04T11:25:31.478Z,100248.91
2018-09-04T11:30:35.221Z,100239.48
2018-09-04T11:35:38.868Z,100241.13
2018-09-04T11:40:42.741Z,100244.53
2018-09-04T11:45:46.462Z,100241.73
2018-09-04T11:50:50.146Z,100252.31
2018-09-04T11:55:53.876Z,100247.13
2018-09-04T12:00:57.612Z,100247.57
2018-09-04T12:06:01.305Z,100247.02
2018-09-04T12:11:05.006Z,100249.82
2018-09-04T12:16:08.670Z,100243.97
2018-09-04T12:21:12.989Z,100250.26
2018-09-04T12:26:16.602Z,100242.02
2018-09-04T12:31:20.281Z,100236.94
2018-09-04T12:36:23.990Z,100238.08
2018-09-04T12:41:27.634Z,100236.14
2018-09-04T12:46:31.578Z,100229.84
2018-09-04T12:51:35.232Z,100222.60
2018-09-04T12:56:38.945Z,100222.30
2018-09-04T13:01:42.636Z,100224.70
2018-09-04T13:06:46.302Z,100223.45
2018-09-04T13:11:49.993Z,100222.50
2018-09-04T13:16:53.725Z,100208.59
2018-09-04T13:21:57.427Z,100209.14
2018-09-04T13:27:01.078Z,100211.08
2018-09-04T13:32:04.713Z,100214.38
2018-09-04T13:37:09.493Z,100210.98
2018-09-04T13:42:13.601Z,100204.19
2018-09-04T13:47:17.357Z,100204.33
2018-09-04T13:52:21.621Z,100201.70
2018-09-04T13:57:26.090Z,100206.55
2018-09-04T14:02:29.938Z,100204.34
2018-09-04T14:07:33.697Z,100212.30
2018-09-04T14:12:37.382Z,100205.20
2018-09-04T14:17:41.049Z,100210.14
2018-09-04T14:22:44.775Z,100205.60
2018-09-04T14:27:48.445Z,100195.89
2018-09-04T14:32:52.181Z,100201.63
2018-09-04T14:37:56.603Z,100205.58
2018-09-04T14:43:00.274Z,100201.03
2018-09-04T14:48:04.059Z,100206.93
2018-09-04T14:53:08.302Z,100209.28
2018-09-04T14:58:12.130Z,100209.78
2018-09-04T15:03:16.050Z,100211.62
2018-09-04T15:08:19.661Z,100211.98
2018-09-04T15:13:23.289Z,100218.17
2018-09-04T15:18:26.949Z,100213.78
2018-09-04T15:23:30.750Z,100219.67
2018-09-04T15:28:34.510Z,100214.52
2018-09-04T15:33:38.521Z,100215.80
2018-09-04T15:38:42.278Z,100216.81
2018-09-04T15:43:45.995Z,100214.94
2018-09-04T15:48:54.817Z,100211.66
2018-09-04T15:54:00.169Z,100209.93
2018-09-04T15:59:03.992Z,100215.80
2018-09-04T16:04:08.117Z,100214.33
2018-09-04T16:09:11.731Z,100210.82
2018-09-04T16:14:15.364Z,100211.62
2018-09-04T16:19:19.127Z,100213.89
2018-09-04T16:24:22.904Z,100215.98
2018-09-04T16:29:26.620Z,100214.38
2018-09-04T16:34:30.327Z,100212.44
2018-09-04T16:39:34.179Z,100214.88
2018-09-04T16:44:38.741Z,100221.08
2018-09-04T16:49:42.401Z,100217.95
2018-09-04T16:55:14.318Z,100221.31
2018-09-04T17:00:18.538Z,100228.21
2018-09-04T17:05:22.453Z,100231.83
2018-09-04T17:10:26.237Z,100240.08
2018-09-04T17:15:30.059Z,100240.66
2018-09-04T17:20:34.003Z,100246.05
2018-09-04T17:25:37.637Z,100251.45
2018-09-04T17:30:41.335Z,100247.77
2018-09-04T17:35:45.703Z,100256.25
2018-09-04T17:40:49.535Z,100254.93
2018-09-04T17:45:53.566Z,100256.52
2018-09-04T17:50:57.297Z,100265.69
2018-09-04T17:56:03.531Z,100268.08
2018-09-04T18:01:07.769Z,100267.74
2018-09-04T18:06:14.690Z,100278.73
2018-09-04T18:11:18.659Z,100289.59
2018-09-04T18:16:23.126Z,100277.60
2018-09-04T18:21:26.978Z,100295.56
2018-09-04T18:26:30.848Z,100303.81
2018-09-04T18:31:34.921Z,100319.36
2018-09-04T18:36:39.709Z,100323.26
2018-09-04T18:41:45.058Z,100332.91
2018-09-04T18:46:51.254Z,100331.91
2018-09-04T18:51:58.122Z,100333.20
2018-09-04T18:57:01.996Z,100338.60
2018-09-04T19:02:05.878Z,100341.30
2018-09-04T19:07:11.285Z,100354.80
2018-09-04T19:12:17.128Z,100346.14
2018-09-04T19:17:21.370Z,100348.34
2018-09-04T19:22:25.746Z,100355.35
2018-09-04T19:27:31.523Z,100358.28
2018-09-04T19:32:36.497Z,100363.80
2018-09-04T19:37:42.687Z,100371.78
2018-09-04T19:42:48.867Z,100370.64
2018-09-04T19:47:55.002Z,100373.98
2018-09-04T19:53:00.879Z,100381.08
2018-09-04T19:58:06.644Z,100380.73
2018-09-04T20:03:12.063Z,100390.68
2018-09-04T20:08:16.020Z,100392.02
2018-09-04T20:13:19.955Z,100401.33
2018-09-04T20:18:24.488Z,100402.88
2018-09-04T20:23:29.250Z,100402.33
2018-09-04T20:28:33.001Z,100401.19
2018-09-04T20:33:36.737Z,100400.48
2018-09-04T20:38:40.517Z,100397.63
2018-09-04T20:43:44.292Z,100402.19
2018-09-04T20:48:48.432Z,100400.48
2018-09-04T20:53:53.605Z,100408.08
2018-09-04T20:59:08.569Z,100408.93
2018-09-04T21:04:23.473Z,100414.33
2018-09-04T21:09:38.761Z,100415.73
2018-09-04T21:14:42.820Z,100422.48
2018-09-04T21:19:46.615Z,100424.48
2018-09-04T21:24:50.394Z,100431.38
2018-09-04T21:29:54.181Z,100434.43
2018-09-04T21:34:57.946Z,100428.53
2018-09-04T21:40:05.070Z,100423.93
2018-09-04T21:45:09.186Z,100429.94
2018-09-04T21:50:13.182Z,100429.73
2018-09-04T21:55:16.923Z,100434.98
2018-09-04T22:00:26.470Z,100430.09
2018-09-04T22:05:30.278Z,100434.78
2018-09-04T22:10:34.964Z,100437.77
2018-09-04T22:15:38.903Z,100440.68
2018-09-04T22:20:42.896Z,100449.06
2018-09-04T22:25:46.690Z,100451.41
2018-09-04T22:30:50.578Z,100452.88
2018-09-04T22:35:54.426Z,100450.92
2018-09-04T22:40:58.249Z,100455.87
2018-09-04T22:46:02.135Z,100459.21
2018-09-04T22:51:11.097Z,100465.31
2018-09-04T22:56:15.331Z,100465.46
2018-09-04T23:01:19.026Z,100462.77
2018-09-04T23:06:22.733Z,100465.11
2018-09-04T23:11:26.549Z,100468.09
2018-09-04T23:16:30.331Z,100463.05
2018-09-04T23:21:34.095Z,100465.96
2018-09-04T23:26:37.816Z,100469.59
2018-09-04T23:31:41.460Z,100467.18
2018-09-04T23:36:46.066Z,100460.58
2018-09-04T23:41:49.722Z,100460.22
2018-09-04T23:46:53.482Z,100455.33
2018-09-04T23:51:57.153Z,100457.87
2018-09-04T23:57:00.856Z,100455.96
